createdAt,value
2023-03-07T00:00:32.766Z,50.89
2023-03-07T00:03:01.361Z,50.85
2023-03-07T00:05:29.778Z,50.80
2023-03-07T00:07:59.154Z,51.04
2023-03-07T00:10:27.468Z,51.03
2023-03-07T00:12:58.911Z,50.64
2023-03-07T00:15:27.273Z,51.13
2023-03-07T00:17:55.728Z,51.16
2023-03-07T00:20:24.438Z,51.18
2023-03-07T00:22:52.894Z,51.53
2023-03-07T00:25:21.143Z,52.01
2023-03-07T00:27:49.562Z,52.07
2023-03-07T00:30:18.217Z,52.59
2023-03-07T00:32:46.472Z,52.84
2023-03-07T00:35:14.957Z,52.79
2023-03-07T00:37:43.233Z,52.72
2023-03-07T00:40:15.862Z,52.63
2023-03-07T00:42:44.850Z,52.58
2023-03-07T00:45:13.804Z,52.46
2023-03-07T00:47:42.318Z,52.28
2023-03-07T00:50:11.185Z,52.25
2023-03-07T00:52:39.882Z,51.94
2023-03-07T00:55:09.039Z,51.66
2023-03-07T00:57:38.970Z,51.63
2023-03-07T01:00:09.245Z,51.60
2023-03-07T01:02:37.808Z,51.72
2023-03-07T01:05:07.455Z,51.65
2023-03-07T01:07:36.318Z,51.41
2023-03-07T01:10:06.714Z,51.30
2023-03-07T01:12:36.114Z,51.18
2023-03-07T01:15:06.666Z,50.84
2023-03-07T01:17:35.418Z,50.73
2023-03-07T01:20:07.352Z,50.90
2023-03-07T01:22:36.954Z,50.96
2023-03-07T01:25:07.390Z,50.82
2023-03-07T01:27:36.325Z,50.58
2023-03-07T01:30:08.466Z,50.66
2023-03-07T01:32:38.928Z,50.50
2023-03-07T01:35:07.771Z,50.32
2023-03-07T01:37:36.177Z,50.43
2023-03-07T01:40:05.535Z,50.54
2023-03-07T01:42:33.987Z,50.38
2023-03-07T01:45:07.141Z,50.11
2023-03-07T01:47:46.647Z,50.44
2023-03-07T01:50:16.843Z,50.16
2023-03-07T01:52:47.836Z,50.40
2023-03-07T01:55:27.300Z,50.37
2023-03-07T01:58:00.932Z,50.24
2023-03-07T02:00:30.126Z,50.07
2023-03-07T02:03:11.744Z,50.06
2023-03-07T02:05:45.835Z,49.88
2023-03-07T02:08:14.627Z,49.56
2023-03-07T02:10:44.467Z,49.60
2023-03-07T02:13:13.232Z,49.68
2023-03-07T02:15:51.344Z,49.32
2023-03-07T02:18:21.766Z,49.31
2023-03-07T02:20:56.188Z,49.10
2023-03-07T02:23:40.843Z,48.83
2023-03-07T02:26:12.578Z,48.95
2023-03-07T02:28:42.866Z,48.81
2023-03-07T02:31:11.796Z,49.11
2023-03-07T02:33:41.401Z,49.17
2023-03-07T02:36:18.199Z,49.18
2023-03-07T02:38:53.196Z,48.93
2023-03-07T02:41:27.795Z,49.18
2023-03-07T02:43:58.181Z,48.90
2023-03-07T02:46:26.918Z,48.96
2023-03-07T02:48:56.311Z,48.88
2023-03-07T02:51:24.772Z,48.90
2023-03-07T02:53:53.243Z,48.76
2023-03-07T02:56:21.988Z,49.08
2023-03-07T02:58:50.614Z,49.05
2023-03-07T03:01:19.250Z,49.37
2023-03-07T03:03:47.769Z,49.41
2023-03-07T03:06:16.040Z,49.26
2023-03-07T03:08:44.459Z,49.52
2023-03-07T03:11:13.300Z,49.46
2023-03-07T03:13:43.007Z,49.44
2023-03-07T03:16:11.496Z,49.71
2023-03-07T03:18:40.904Z,49.68
2023-03-07T03:21:10.748Z,49.57
2023-03-07T03:23:39.385Z,49.79
2023-03-07T03:26:11.791Z,49.74
2023-03-07T03:28:41.094Z,49.78
2023-03-07T03:31:11.432Z,49.79
2023-03-07T03:33:42.257Z,49.73
2023-03-07T03:36:13.173Z,49.59
2023-03-07T03:38:42.424Z,49.14
2023-03-07T03:41:13.206Z,48.97
2023-03-07T03:43:42.205Z,48.94
2023-03-07T03:46:10.475Z,48.80
2023-03-07T03:48:39.171Z,48.70
2023-03-07T03:51:12.038Z,48.87
2023-03-07T03:53:41.302Z,48.93
2023-03-07T03:56:14.557Z,48.99
2023-03-07T03:58:43.207Z,48.93
2023-03-07T04:01:12.122Z,48.93
2023-03-07T04:03:50.745Z,48.98
2023-03-07T04:06:21.310Z,48.51
2023-03-07T04:08:51.526Z,48.55
2023-03-07T04:11:21.035Z,48.38
2023-03-07T04:13:50.240Z,48.19
2023-03-07T04:16:23.379Z,48.11
2023-03-07T04:18:52.599Z,48.00
2023-03-07T04:21:21.587Z,48.02
2023-03-07T04:23:58.634Z,48.05
2023-03-07T04:26:32.365Z,47.98
2023-03-07T04:29:00.763Z,47.46
2023-03-07T04:31:35.385Z,47.56
2023-03-07T04:34:05.596Z,47.20
2023-03-07T04:36:34.504Z,47.18
2023-03-07T04:39:02.964Z,47.58
2023-03-07T04:41:32.721Z,47.37
2023-03-07T04:44:18.991Z,47.13
2023-03-07T04:46:47.343Z,46.93
2023-03-07T04:49:16.118Z,46.74
2023-03-07T04:51:44.644Z,46.88
2023-03-07T04:54:15.584Z,46.52
2023-03-07T04:56:44.812Z,46.40
2023-03-07T04:59:13.657Z,46.56
2023-03-07T05:01:42.833Z,46.09
2023-03-07T05:04:11.683Z,45.91
2023-03-07T05:06:42.661Z,46.23
2023-03-07T05:09:11.508Z,46.01
2023-03-07T05:11:40.465Z,46.12
2023-03-07T05:14:10.117Z,45.81
2023-03-07T05:16:38.624Z,45.80
2023-03-07T05:19:07.073Z,45.96
2023-03-07T05:21:35.392Z,45.96
2023-03-07T05:24:07.987Z,45.57
2023-03-07T05:26:37.839Z,46.14
2023-03-07T05:29:06.079Z,45.88
2023-03-07T05:31:36.329Z,46.33
2023-03-07T05:34:08.628Z,46.64
2023-03-07T05:36:37.763Z,46.35
2023-03-07T05:39:06.280Z,46.18
2023-03-07T05:41:36.554Z,46.44
2023-03-07T05:44:05.404Z,46.63
2023-03-07T05:46:34.751Z,46.96
2023-03-07T05:49:04.554Z,47.71
2023-03-07T05:51:33.042Z,56.54
2023-03-07T05:54:01.486Z,53.14
2023-03-07T05:56:30.462Z,52.15
2023-03-07T05:58:58.785Z,54.79
2023-03-07T06:01:28.346Z,55.79
2023-03-07T06:03:58.587Z,13.73
2023-03-07T06:06:26.855Z,-1.00
2023-03-07T06:08:56.554Z,-1.00
2023-03-07T06:11:24.966Z,-1.00
2023-03-07T06:14:00.331Z,-1.00
2023-03-07T06:16:30.270Z,-1.00
2023-03-07T06:19:01.055Z,-1.00
2023-03-07T06:21:30.820Z,-1.00
2023-03-07T06:23:59.559Z,-1.00
2023-03-07T06:26:28.341Z,-1.00
2023-03-07T06:28:57.528Z,-1.00
2023-03-07T06:31:27.202Z,-1.00
2023-03-07T06:33:57.650Z,-1.00
2023-03-07T06:36:27.176Z,-1.00
2023-03-07T06:39:01.427Z,-1.00
2023-03-07T06:41:30.353Z,-1.00
2023-03-07T06:43:59.916Z,-1.00
2023-03-07T06:46:31.730Z,-1.00
2023-03-07T06:49:05.222Z,-1.00
2023-03-07T06:51:36.063Z,-1.00
2023-03-07T06:54:09.558Z,-1.00
2023-03-07T06:56:38.193Z,-1.00
2023-03-07T06:59:06.983Z,-1.00
2023-03-07T07:01:36.351Z,-1.00
2023-03-07T07:04:06.081Z,-1.00
2023-03-07T07:06:38.515Z,-1.00
2023-03-07T07:09:06.938Z,-1.00
2023-03-07T07:11:38.998Z,-1.00
2023-03-07T07:14:11.345Z,-1.00
2023-03-07T07:16:39.884Z,-1.00
2023-03-07T07:19:09.721Z,-1.00
2023-03-07T07:21:38.412Z,-1.00
2023-03-07T07:24:07.507Z,-1.00
2023-03-07T07:26:36.549Z,-1.00
2023-03-07T07:29:05.244Z,-1.00
2023-03-07T07:31:33.985Z,-1.00
2023-03-07T07:34:02.695Z,-1.00
2023-03-07T07:36:32.923Z,-1.00
2023-03-07T07:39:05.586Z,-1.00
2023-03-07T07:41:35.072Z,-1.00
2023-03-07T07:44:03.813Z,-1.00
2023-03-07T07:46:41.200Z,-1.00
2023-03-07T07:49:10.040Z,-1.00
2023-03-07T07:51:40.985Z,-1.00
2023-03-07T07:54:10.000Z,-1.00
2023-03-07T07:56:38.572Z,-1.00
2023-03-07T07:59:07.210Z,-1.00
2023-03-07T08:01:36.081Z,-1.00
2023-03-07T08:04:04.479Z,-1.00
2023-03-07T08:06:33.902Z,-1.00
2023-03-07T08:09:02.357Z,-1.00
2023-03-07T08:11:35.102Z,-1.00
2023-03-07T08:14:04.627Z,-1.00
2023-03-07T08:16:33.363Z,-1.00
2023-03-07T08:19:01.825Z,-1.00
2023-03-07T08:21:30.656Z,-1.00
2023-03-07T08:23:59.770Z,-1.00
2023-03-07T08:26:31.741Z,-1.00
2023-03-07T08:29:00.368Z,-1.00
2023-03-07T08:31:29.062Z,-1.00
2023-03-07T08:33:58.448Z,-1.00
2023-03-07T08:36:27.343Z,-1.00
2023-03-07T08:39:00.121Z,-1.00
2023-03-07T08:41:29.121Z,-1.00
2023-03-07T08:43:58.282Z,-1.00
2023-03-07T08:46:27.044Z,-1.00
2023-03-07T08:48:56.301Z,-1.00
2023-03-07T08:51:29.284Z,-1.00
2023-03-07T08:55:11.605Z,83.62
2023-03-07T08:57:39.035Z,70.88
2023-03-07T09:00:09.017Z,69.75
2023-03-07T09:02:36.036Z,70.25
2023-03-07T09:05:03.774Z,70.07
2023-03-07T09:07:30.716Z,70.87
2023-03-07T09:09:59.542Z,71.06
2023-03-07T09:12:27.289Z,71.34
2023-03-07T09:14:54.531Z,70.68
2023-03-07T09:17:22.136Z,70.32
2023-03-07T09:19:50.135Z,72.41
2023-03-07T09:22:17.414Z,71.53
2023-03-07T09:24:44.671Z,71.28
2023-03-07T09:27:11.974Z,71.51
2023-03-07T09:29:38.899Z,71.59
2023-03-07T09:32:07.576Z,70.67
2023-03-07T09:34:35.602Z,71.39
2023-03-07T09:37:02.684Z,71.48
2023-03-07T09:39:37.666Z,70.91
2023-03-07T09:42:20.236Z,69.13
2023-03-07T09:44:54.701Z,69.01
2023-03-07T09:48:03.231Z,71.00
2023-03-07T09:50:48.525Z,66.63
2023-03-07T09:53:21.888Z,70.48
2023-03-07T09:55:51.351Z,67.24
2023-03-07T09:58:21.508Z,64.43
2023-03-07T10:00:52.271Z,65.36
2023-03-07T10:03:33.391Z,62.92
2023-03-07T10:06:08.718Z,59.82
2023-03-07T10:08:37.610Z,59.54
2023-03-07T10:11:23.331Z,58.04
2023-03-07T10:14:13.646Z,58.32
2023-03-07T10:16:50.284Z,59.47
2023-03-07T10:19:29.518Z,57.84
2023-03-07T10:22:19.060Z,56.53
2023-03-07T10:24:55.298Z,55.25
2023-03-07T10:27:26.545Z,55.28
2023-03-07T10:29:54.771Z,54.04
2023-03-07T10:32:23.130Z,54.72
2023-03-07T10:34:55.553Z,53.62
2023-03-07T10:37:26.747Z,53.61
2023-03-07T10:39:55.747Z,52.75
2023-03-07T10:42:24.001Z,50.48
2023-03-07T10:44:51.531Z,50.08
2023-03-07T10:47:22.987Z,49.95
2023-03-07T10:49:51.929Z,49.95
2023-03-07T10:52:48.069Z,50.01
2023-03-07T10:55:33.848Z,48.98
2023-03-07T10:58:19.356Z,50.88
2023-03-07T11:01:06.084Z,48.74
2023-03-07T11:03:52.220Z,48.86
2023-03-07T11:06:34.317Z,48.69
2023-03-07T11:09:28.455Z,47.71
2023-03-07T11:12:03.992Z,47.71
2023-03-07T11:15:11.543Z,46.88
2023-03-07T11:17:45.238Z,46.91
2023-03-07T11:20:30.452Z,46.72
2023-03-07T11:23:16.374Z,47.46
2023-03-07T11:25:44.600Z,47.08
2023-03-07T11:28:32.951Z,44.63
2023-03-07T11:31:18.863Z,44.60
2023-03-07T11:34:05.894Z,44.74
2023-03-07T11:36:36.266Z,43.79
2023-03-07T11:39:31.302Z,44.39
2023-03-07T11:42:07.842Z,43.91
2023-03-07T11:44:54.173Z,44.21
2023-03-07T11:47:33.523Z,44.07
2023-03-07T11:50:23.575Z,44.23
2023-03-07T11:53:18.195Z,44.61
2023-03-07T11:56:14.822Z,43.76
2023-03-07T11:58:51.495Z,43.32
2023-03-07T12:01:55.951Z,42.77
2023-03-07T12:04:52.335Z,41.85
2023-03-07T12:07:18.991Z,42.22
2023-03-07T12:09:51.836Z,42.25
2023-03-07T12:12:46.995Z,41.24
2023-03-07T12:15:27.820Z,41.27
2023-03-07T12:18:23.900Z,40.47
2023-03-07T12:21:12.560Z,39.30
2023-03-07T12:23:43.273Z,39.81
2023-03-07T12:26:24.576Z,40.31
2023-03-07T12:29:19.535Z,40.23
2023-03-07T12:31:48.277Z,40.62
2023-03-07T12:34:15.461Z,40.42
2023-03-07T12:36:48.571Z,40.05
2023-03-07T12:39:21.204Z,39.66
2023-03-07T12:42:03.022Z,40.17
2023-03-07T12:44:53.162Z,40.02
2023-03-07T12:47:39.441Z,40.40
2023-03-07T12:50:19.057Z,40.42
2023-03-07T12:52:50.182Z,40.14
2023-03-07T12:55:36.684Z,40.56
2023-03-07T12:58:15.205Z,40.39
2023-03-07T13:00:45.585Z,39.96
2023-03-07T13:03:21.665Z,39.28
2023-03-07T13:05:48.821Z,39.38
2023-03-07T13:08:21.293Z,39.71
2023-03-07T13:10:48.677Z,39.35
2023-03-07T13:13:42.794Z,38.86
2023-03-07T13:16:30.727Z,38.86
2023-03-07T13:19:36.055Z,38.41
2023-03-07T13:22:16.260Z,38.18
2023-03-07T13:24:43.853Z,38.73
2023-03-07T13:27:19.390Z,39.04
2023-03-07T13:30:13.016Z,39.58
2023-03-07T13:32:55.200Z,39.16
2023-03-07T13:35:28.207Z,39.11
2023-03-07T13:38:03.981Z,39.47
2023-03-07T13:40:35.446Z,39.18
2023-03-07T13:43:03.360Z,39.73
2023-03-07T13:45:39.930Z,40.17
2023-03-07T13:48:19.218Z,39.93
2023-03-07T13:50:49.181Z,39.70
2023-03-07T13:53:34.003Z,39.33
2023-03-07T13:56:16.816Z,39.31
2023-03-07T13:58:51.966Z,38.97
2023-03-07T14:01:20.585Z,38.33
2023-03-07T14:04:08.242Z,38.19
2023-03-07T14:06:39.943Z,37.86
2023-03-07T14:09:08.056Z,37.24
2023-03-07T14:11:39.623Z,37.12
2023-03-07T14:14:52.145Z,37.65
2023-03-07T14:17:28.771Z,36.90
2023-03-07T14:20:26.077Z,37.54
2023-03-07T14:23:02.372Z,36.09
2023-03-07T14:25:34.185Z,35.40
2023-03-07T14:28:27.100Z,35.85
2023-03-07T14:30:58.451Z,36.27
2023-03-07T14:33:30.804Z,36.08
2023-03-07T14:35:58.808Z,35.51
2023-03-07T14:38:25.913Z,35.77
2023-03-07T14:41:17.926Z,35.79
2023-03-07T14:43:52.423Z,35.60
2023-03-07T14:47:02.814Z,35.60
2023-03-07T14:49:39.900Z,35.62
2023-03-07T14:52:14.415Z,36.28
2023-03-07T14:54:45.848Z,35.64
2023-03-07T14:57:23.706Z,35.38
2023-03-07T15:00:13.131Z,35.12
2023-03-07T15:03:13.204Z,34.97
2023-03-07T15:05:47.491Z,35.42
2023-03-07T15:08:26.137Z,35.30
2023-03-07T15:11:01.650Z,35.87
2023-03-07T15:14:07.989Z,35.30
2023-03-07T15:16:35.389Z,35.95
2023-03-07T15:19:11.767Z,36.60
2023-03-07T15:21:44.160Z,36.32
2023-03-07T15:24:29.073Z,34.89
2023-03-07T15:26:56.136Z,35.18
2023-03-07T15:29:24.526Z,-1.00
2023-03-07T15:31:54.655Z,-1.00
2023-03-07T15:34:27.052Z,-1.00
2023-03-07T15:36:53.929Z,-1.00
2023-03-07T15:39:39.133Z,-1.00
2023-03-07T15:42:07.219Z,-1.00
2023-03-07T15:44:35.800Z,-1.00
2023-03-07T15:47:10.863Z,-1.00
2023-03-07T15:49:48.356Z,-1.00
2023-03-07T15:52:26.730Z,-1.00
2023-03-07T15:54:56.087Z,-1.00
2023-03-07T15:57:34.263Z,-1.00
2023-03-07T16:00:05.514Z,-1.00
2023-03-07T16:02:32.831Z,-1.00
2023-03-07T16:05:00.889Z,-1.00
2023-03-07T16:07:28.031Z,-1.00
2023-03-07T16:09:56.295Z,-1.00
2023-03-07T16:12:23.392Z,-1.00
2023-03-07T16:15:02.386Z,-1.00
2023-03-07T16:17:33.372Z,-1.00
2023-03-07T16:20:00.342Z,-1.00
2023-03-07T16:22:29.284Z,-1.00
2023-03-07T16:24:56.795Z,-1.00
2023-03-07T16:27:25.557Z,-1.00
2023-03-07T16:29:52.709Z,-1.00
2023-03-07T16:32:21.029Z,-1.00
2023-03-07T16:34:51.288Z,-1.00
2023-03-07T16:37:19.922Z,-1.00
2023-03-07T16:39:46.741Z,-1.00
2023-03-07T16:42:19.629Z,-1.00
2023-03-07T16:44:46.705Z,-1.00
2023-03-07T16:47:14.980Z,-1.00
2023-03-07T16:49:41.876Z,-1.00
2023-03-07T16:52:13.254Z,-1.00
2023-03-07T16:54:40.508Z,-1.00
2023-03-07T16:57:12.173Z,-1.00
2023-03-07T16:59:39.500Z,-1.00
2023-03-07T17:02:24.864Z,-1.00
2023-03-07T17:04:51.801Z,-1.00
2023-03-07T17:07:22.943Z,-1.00
2023-03-07T17:09:51.309Z,-1.00
2023-03-07T17:12:23.574Z,-1.00
2023-03-07T17:14:50.733Z,-1.00
2023-03-07T17:17:21.389Z,-1.00
2023-03-07T17:19:48.585Z,-1.00
2023-03-07T17:22:15.387Z,-1.00
2023-03-07T17:24:42.433Z,-1.00
2023-03-07T17:27:11.749Z,-1.00
2023-03-07T17:29:51.010Z,-1.00
2023-03-07T17:32:18.057Z,-1.00
2023-03-07T17:34:45.745Z,-1.00
2023-03-07T17:37:12.765Z,-1.00
2023-03-07T17:39:41.937Z,-1.00
2023-03-07T17:42:13.371Z,-1.00
2023-03-07T17:44:41.612Z,-1.00
2023-03-07T17:47:08.647Z,-1.00
2023-03-07T17:49:36.894Z,-1.00
2023-03-07T17:52:04.653Z,-1.00
2023-03-07T17:54:32.017Z,-1.00
2023-03-07T17:56:59.339Z,-1.00
2023-03-07T17:59:26.579Z,-1.00
2023-03-07T18:01:58.925Z,-1.00
2023-03-07T18:04:28.050Z,-1.00
2023-03-07T18:06:55.007Z,-1.00
2023-03-07T18:09:22.818Z,-1.00
2023-03-07T18:11:49.610Z,-1.00
2023-03-07T18:14:17.022Z,-1.00
2023-03-07T18:16:43.936Z,-1.00
2023-03-07T18:19:25.403Z,-1.00
2023-03-07T18:21:53.296Z,-1.00
2023-03-07T18:24:29.462Z,-1.00
2023-03-07T18:26:58.639Z,-1.00
2023-03-07T18:29:26.177Z,-1.00
2023-03-07T18:31:53.368Z,-1.00
2023-03-07T18:34:22.702Z,-1.00
2023-03-07T18:36:51.721Z,-1.00
2023-03-07T18:39:20.950Z,-1.00
2023-03-07T18:41:48.378Z,-1.00
2023-03-07T18:44:17.810Z,-1.00
2023-03-07T18:46:49.466Z,-1.00
2023-03-07T18:49:16.491Z,-1.00
2023-03-07T18:51:45.285Z,-1.00
2023-03-07T18:54:12.278Z,-1.00
2023-03-07T18:56:39.865Z,-1.00
2023-03-07T18:59:07.955Z,-1.00
2023-03-07T19:01:35.169Z,-1.00
2023-03-07T19:04:03.519Z,-1.00
2023-03-07T19:06:32.576Z,-1.00
2023-03-07T19:08:59.943Z,-1.00
2023-03-07T19:11:27.475Z,-1.00
2023-03-07T19:13:54.679Z,-1.00
2023-03-07T19:16:23.157Z,-1.00
2023-03-07T19:18:52.002Z,-1.00
2023-03-07T19:21:23.863Z,-1.00
2023-03-07T19:23:51.820Z,-1.00
2023-03-07T19:26:19.328Z,-1.00
2023-03-07T19:28:47.315Z,-1.00
2023-03-07T19:31:14.853Z,-1.00
2023-03-07T19:33:42.669Z,-1.00
2023-03-07T19:36:11.617Z,-1.00
2023-03-07T19:38:43.747Z,-1.00
2023-03-07T19:41:12.345Z,-1.00
2023-03-07T19:43:40.303Z,-1.00
2023-03-07T19:46:08.354Z,-1.00
2023-03-07T19:48:44.421Z,-1.00
2023-03-07T19:51:13.419Z,-1.00
2023-03-07T19:53:41.799Z,-1.00
2023-03-07T19:56:16.430Z,-1.00
2023-03-07T19:58:43.530Z,-1.00
2023-03-07T20:01:11.765Z,-1.00
2023-03-07T20:03:38.852Z,-1.00
2023-03-07T20:06:06.632Z,-1.00
2023-03-07T20:08:34.712Z,-1.00
2023-03-07T20:11:12.241Z,-1.00
2023-03-07T20:13:40.011Z,-1.00
2023-03-07T20:16:10.286Z,-1.00
2023-03-07T20:18:37.947Z,-1.00
2023-03-07T20:21:10.717Z,-1.00
2023-03-07T20:23:37.579Z,-1.00
2023-03-07T20:26:06.492Z,-1.00
2023-03-07T20:28:36.029Z,-1.00
2023-03-07T20:31:08.386Z,-1.00
2023-03-07T20:33:40.292Z,-1.00
2023-03-07T20:36:09.289Z,-1.00
2023-03-07T20:38:36.981Z,-1.00
2023-03-07T20:41:05.887Z,-1.00
2023-03-07T20:43:33.563Z,-1.00
2023-03-07T20:46:07.075Z,-1.00
2023-03-07T20:48:35.657Z,-1.00
2023-03-07T20:51:04.748Z,-1.00
2023-03-07T20:53:32.442Z,-1.00
2023-03-07T20:56:03.790Z,-1.00
2023-03-07T20:58:31.225Z,-1.00
2023-03-07T21:00:58.443Z,-1.00
2023-03-07T21:03:25.859Z,-1.00
2023-03-07T21:05:57.371Z,-1.00
2023-03-07T21:11:05.856Z,57.98
2023-03-07T21:13:36.160Z,51.39
2023-03-07T21:16:07.285Z,50.85
2023-03-07T21:18:36.175Z,51.01
2023-03-07T21:21:12.507Z,51.38
2023-03-07T21:23:56.916Z,51.51
2023-03-07T21:26:27.885Z,51.32
2023-03-07T21:28:57.698Z,51.24
2023-03-07T21:31:27.942Z,50.88
2023-03-07T21:34:04.161Z,51.20
2023-03-07T21:36:33.052Z,51.20
2023-03-07T21:39:05.457Z,51.22
2023-03-07T21:41:34.600Z,51.07
2023-03-07T21:44:04.839Z,51.21
2023-03-07T21:46:34.184Z,51.24
2023-03-07T21:49:02.924Z,51.12
2023-03-07T21:51:31.184Z,51.16
2023-03-07T21:53:59.706Z,51.35
2023-03-07T21:56:28.092Z,51.25
2023-03-07T21:58:56.841Z,51.53
2023-03-07T22:01:28.031Z,-1.00
2023-03-07T22:03:57.606Z,-1.00
2023-03-07T22:06:26.265Z,-1.00
2023-03-07T22:08:59.539Z,-1.00
2023-03-07T22:11:28.046Z,-1.00
2023-03-07T22:13:57.888Z,-1.00
2023-03-07T22:16:29.792Z,-1.00
2023-03-07T22:18:58.366Z,-1.00
2023-03-07T22:21:27.109Z,-1.00
2023-03-07T22:24:00.246Z,-1.00
2023-03-07T22:26:29.182Z,-1.00
2023-03-07T22:28:57.647Z,-1.00
2023-03-07T22:31:28.106Z,-1.00
2023-03-07T22:33:58.484Z,-1.00
2023-03-07T22:36:27.732Z,-1.00
2023-03-07T22:38:57.362Z,-1.00
2023-03-07T22:41:26.810Z,-1.00
2023-03-07T22:43:55.487Z,-1.00
2023-03-07T22:46:23.914Z,-1.00
2023-03-07T22:48:56.010Z,-1.00
2023-03-07T22:51:24.984Z,-1.00
2023-03-07T22:53:53.490Z,-1.00
2023-03-07T22:56:23.956Z,-1.00
2023-03-07T22:58:58.773Z,-1.00
2023-03-07T23:01:28.557Z,-1.00
2023-03-07T23:03:57.913Z,-1.00
2023-03-07T23:06:31.092Z,-1.00
2023-03-07T23:08:59.946Z,-1.00
2023-03-07T23:11:33.615Z,-1.00
2023-03-07T23:14:02.403Z,-1.00
2023-03-07T23:16:31.299Z,-1.00
2023-03-07T23:19:03.771Z,-1.00
2023-03-07T23:21:32.441Z,-1.00
2023-03-07T23:24:04.925Z,-1.00
2023-03-07T23:26:35.857Z,-1.00
2023-03-07T23:29:05.697Z,-1.00
2023-03-07T23:31:37.665Z,-1.00
2023-03-07T23:34:15.034Z,-1.00
2023-03-07T23:36:43.593Z,-1.00
2023-03-07T23:39:12.907Z,-1.00
2023-03-07T23:41:41.191Z,-1.00
2023-03-07T23:44:10.088Z,-1.00
2023-03-07T23:46:39.129Z,-1.00
2023-03-07T23:49:10.699Z,-1.00
2023-03-07T23:51:39.096Z,-1.00
2023-03-07T23:54:09.469Z,-1.00
2023-03-07T23:56:38.118Z,-1.00
2023-03-07T23:59:06.497Z,-1.00
